sensor_id;sensor_type;location;lat;lon;timestamp;P1;durP1;ratioP1;P2;durP2;ratioP2
18657;SDS011;9458;50.942;5.074;2022-11-15T00:01:06;16.65;;;11.68;;
18657;SDS011;9458;50.942;5.074;2022-11-15T00:03:34;18.40;;;12.63;;
18657;SDS011;9458;50.942;5.074;2022-11-15T00:06:04;20.52;;;12.70;;
18657;SDS011;9458;50.942;5.074;2022-11-15T00:08:32;17.83;;;12.80;;
18657;SDS011;9458;50.942;5.074;2022-11-15T00:11:01;19.23;;;12.18;;
18657;SDS011;9458;50.942;5.074;2022-11-15T00:13:29;15.82;;;12.60;;
18657;SDS011;9458;50.942;5.074;2022-11-15T00:15:58;16.77;;;12.32;;
18657;SDS011;9458;50.942;5.074;2022-11-15T00:18:27;17.30;;;12.07;;
18657;SDS011;9458;50.942;5.074;2022-11-15T00:20:55;17.67;;;12.07;;
18657;SDS011;9458;50.942;5.074;2022-11-15T00:23:32;16.60;;;12.30;;
18657;SDS011;9458;50.942;5.074;2022-11-15T00:26:01;18.33;;;12.25;;
18657;SDS011;9458;50.942;5.074;2022-11-15T00:28:28;18.83;;;12.15;;
18657;SDS011;9458;50.942;5.074;2022-11-15T00:30:59;15.77;;;11.48;;
18657;SDS011;9458;50.942;5.074;2022-11-15T00:33:28;16.48;;;11.77;;
18657;SDS011;9458;50.942;5.074;2022-11-15T00:36:00;16.92;;;11.82;;
18657;SDS011;9458;50.942;5.074;2022-11-15T00:38:32;15.98;;;11.77;;
18657;SDS011;9458;50.942;5.074;2022-11-15T00:41:00;19.92;;;12.35;;
18657;SDS011;9458;50.942;5.074;2022-11-15T00:43:30;21.52;;;12.35;;
18657;SDS011;9458;50.942;5.074;2022-11-15T00:45:58;18.40;;;12.18;;
18657;SDS011;9458;50.942;5.074;2022-11-15T00:48:28;17.52;;;11.63;;
18657;SDS011;9458;50.942;5.074;2022-11-15T00:50:56;15.75;;;12.52;;
18657;SDS011;9458;50.942;5.074;2022-11-15T00:53:23;19.08;;;13.32;;
18657;SDS011;9458;50.942;5.074;2022-11-15T00:55:56;15.40;;;12.23;;
18657;SDS011;9458;50.942;5.074;2022-11-15T00:58:25;17.65;;;12.32;;
18657;SDS011;9458;50.942;5.074;2022-11-15T01:00:53;14.82;;;11.52;;
18657;SDS011;9458;50.942;5.074;2022-11-15T01:03:23;20.45;;;12.15;;
18657;SDS011;9458;50.942;5.074;2022-11-15T01:05:58;15.45;;;11.57;;
18657;SDS011;9458;50.942;5.074;2022-11-15T01:08:27;18.23;;;12.70;;
18657;SDS011;9458;50.942;5.074;2022-11-15T01:11:03;17.60;;;12.40;;
18657;SDS011;9458;50.942;5.074;2022-11-15T01:13:34;16.45;;;11.75;;
18657;SDS011;9458;50.942;5.074;2022-11-15T01:16:08;16.05;;;11.85;;
18657;SDS011;9458;50.942;5.074;2022-11-15T01:18:38;15.27;;;11.73;;
18657;SDS011;9458;50.942;5.074;2022-11-15T01:21:08;20.15;;;12.18;;
18657;SDS011;9458;50.942;5.074;2022-11-15T01:23:40;17.40;;;12.68;;
18657;SDS011;9458;50.942;5.074;2022-11-15T01:26:12;18.98;;;12.52;;
18657;SDS011;9458;50.942;5.074;2022-11-15T01:28:42;16.13;;;11.95;;
18657;SDS011;9458;50.942;5.074;2022-11-15T01:31:11;17.27;;;12.23;;
18657;SDS011;9458;50.942;5.074;2022-11-15T01:33:40;15.55;;;11.73;;
18657;SDS011;9458;50.942;5.074;2022-11-15T01:36:11;18.95;;;12.85;;
18657;SDS011;9458;50.942;5.074;2022-11-15T01:38:40;16.42;;;12.13;;
18657;SDS011;9458;50.942;5.074;2022-11-15T01:41:15;17.10;;;13.07;;
18657;SDS011;9458;50.942;5.074;2022-11-15T01:43:44;17.08;;;11.30;;
18657;SDS011;9458;50.942;5.074;2022-11-15T01:46:19;17.15;;;11.98;;
18657;SDS011;9458;50.942;5.074;2022-11-15T01:48:55;15.07;;;11.68;;
18657;SDS011;9458;50.942;5.074;2022-11-15T01:51:26;15.38;;;12.25;;
18657;SDS011;9458;50.942;5.074;2022-11-15T01:53:59;15.75;;;12.18;;
18657;SDS011;9458;50.942;5.074;2022-11-15T01:56:33;16.95;;;12.05;;
18657;SDS011;9458;50.942;5.074;2022-11-15T01:59:06;15.95;;;12.48;;
18657;SDS011;9458;50.942;5.074;2022-11-15T02:01:35;17.08;;;13.05;;
18657;SDS011;9458;50.942;5.074;2022-11-15T02:04:04;16.83;;;13.05;;
18657;SDS011;9458;50.942;5.074;2022-11-15T02:06:36;18.55;;;12.93;;
18657;SDS011;9458;50.942;5.074;2022-11-15T02:09:06;20.08;;;13.10;;
18657;SDS011;9458;50.942;5.074;2022-11-15T02:11:35;16.20;;;12.80;;
18657;SDS011;9458;50.942;5.074;2022-11-15T02:14:03;20.52;;;13.27;;
18657;SDS011;9458;50.942;5.074;2022-11-15T02:16:33;18.55;;;13.38;;
18657;SDS011;9458;50.942;5.074;2022-11-15T02:19:13;17.08;;;13.30;;
18657;SDS011;9458;50.942;5.074;2022-11-15T02:21:50;21.95;;;13.82;;
18657;SDS011;9458;50.942;5.074;2022-11-15T02:27:46;20.05;;;13.93;;
18657;SDS011;9458;50.942;5.074;2022-11-15T02:30:25;17.63;;;13.77;;
18657;SDS011;9458;50.942;5.074;2022-11-15T02:33:01;21.27;;;13.77;;
18657;SDS011;9458;50.942;5.074;2022-11-15T02:35:35;23.92;;;13.95;;
18657;SDS011;9458;50.942;5.074;2022-11-15T02:38:07;21.40;;;14.55;;
18657;SDS011;9458;50.942;5.074;2022-11-15T02:40:41;17.02;;;12.98;;
18657;SDS011;9458;50.942;5.074;2022-11-15T02:43:17;19.23;;;13.43;;
18657;SDS011;9458;50.942;5.074;2022-11-15T02:46:17;18.08;;;13.63;;
18657;SDS011;9458;50.942;5.074;2022-11-15T02:49:09;20.90;;;13.65;;
18657;SDS011;9458;50.942;5.074;2022-11-15T02:51:39;21.52;;;13.32;;
18657;SDS011;9458;50.942;5.074;2022-11-15T02:54:10;17.40;;;12.57;;
18657;SDS011;9458;50.942;5.074;2022-11-15T02:56:40;18.90;;;13.48;;
18657;SDS011;9458;50.942;5.074;2022-11-15T02:59:14;18.23;;;12.98;;
18657;SDS011;9458;50.942;5.074;2022-11-15T03:01:59;22.83;;;13.65;;
18657;SDS011;9458;50.942;5.074;2022-11-15T03:04:40;19.42;;;13.10;;
18657;SDS011;9458;50.942;5.074;2022-11-15T03:07:14;21.95;;;13.23;;
18657;SDS011;9458;50.942;5.074;2022-11-15T03:09:47;17.00;;;12.93;;
18657;SDS011;9458;50.942;5.074;2022-11-15T03:12:20;17.45;;;12.80;;
18657;SDS011;9458;50.942;5.074;2022-11-15T03:14:54;17.65;;;13.65;;
18657;SDS011;9458;50.942;5.074;2022-11-15T03:17:30;19.20;;;13.80;;
18657;SDS011;9458;50.942;5.074;2022-11-15T03:20:04;17.98;;;12.77;;
18657;SDS011;9458;50.942;5.074;2022-11-15T03:22:35;22.88;;;13.85;;
18657;SDS011;9458;50.942;5.074;2022-11-15T03:25:07;20.92;;;14.07;;
18657;SDS011;9458;50.942;5.074;2022-11-15T03:27:39;17.27;;;12.82;;
18657;SDS011;9458;50.942;5.074;2022-11-15T03:30:10;19.48;;;13.48;;
18657;SDS011;9458;50.942;5.074;2022-11-15T03:32:42;17.05;;;13.15;;
18657;SDS011;9458;50.942;5.074;2022-11-15T03:35:14;16.90;;;12.68;;
18657;SDS011;9458;50.942;5.074;2022-11-15T03:37:46;17.05;;;12.80;;
18657;SDS011;9458;50.942;5.074;2022-11-15T03:40:18;18.38;;;13.15;;
18657;SDS011;9458;50.942;5.074;2022-11-15T03:42:54;22.08;;;14.00;;
18657;SDS011;9458;50.942;5.074;2022-11-15T03:45:31;19.15;;;13.30;;
18657;SDS011;9458;50.942;5.074;2022-11-15T03:48:05;16.13;;;13.15;;
18657;SDS011;9458;50.942;5.074;2022-11-15T03:50:37;19.23;;;13.13;;
18657;SDS011;9458;50.942;5.074;2022-11-15T03:53:06;17.63;;;12.73;;
18657;SDS011;9458;50.942;5.074;2022-11-15T03:55:33;20.42;;;13.80;;
18657;SDS011;9458;50.942;5.074;2022-11-15T03:58:01;16.48;;;13.07;;
18657;SDS011;9458;50.942;5.074;2022-11-15T04:00:29;17.48;;;13.00;;
18657;SDS011;9458;50.942;5.074;2022-11-15T04:02:58;18.92;;;13.35;;
18657;SDS011;9458;50.942;5.074;2022-11-15T04:05:27;17.45;;;13.40;;
18657;SDS011;9458;50.942;5.074;2022-11-15T04:07:55;18.35;;;14.23;;
18657;SDS011;9458;50.942;5.074;2022-11-15T04:10:22;19.73;;;14.25;;
18657;SDS011;9458;50.942;5.074;2022-11-15T04:12:50;18.80;;;13.45;;
18657;SDS011;9458;50.942;5.074;2022-11-15T04:15:20;20.10;;;13.00;;
18657;SDS011;9458;50.942;5.074;2022-11-15T04:17:49;18.02;;;14.05;;
18657;SDS011;9458;50.942;5.074;2022-11-15T04:20:20;18.58;;;12.68;;
18657;SDS011;9458;50.942;5.074;2022-11-15T04:23:09;17.52;;;13.18;;
18657;SDS011;9458;50.942;5.074;2022-11-15T04:25:58;18.95;;;13.20;;
18657;SDS011;9458;50.942;5.074;2022-11-15T04:28:28;18.20;;;12.68;;
18657;SDS011;9458;50.942;5.074;2022-11-15T04:30:56;19.73;;;12.70;;
18657;SDS011;9458;50.942;5.074;2022-11-15T04:33:24;18.90;;;13.32;;
18657;SDS011;9458;50.942;5.074;2022-11-15T04:35:52;15.80;;;13.10;;
18657;SDS011;9458;50.942;5.074;2022-11-15T04:38:40;17.13;;;13.13;;
18657;SDS011;9458;50.942;5.074;2022-11-15T04:41:08;15.88;;;12.77;;
18657;SDS011;9458;50.942;5.074;2022-11-15T04:43:35;14.00;;;10.95;;
18657;SDS011;9458;50.942;5.074;2022-11-15T04:46:02;14.23;;;10.77;;
18657;SDS011;9458;50.942;5.074;2022-11-15T04:48:30;13.65;;;9.95;;
18657;SDS011;9458;50.942;5.074;2022-11-15T04:50:57;14.02;;;10.57;;
18657;SDS011;9458;50.942;5.074;2022-11-15T04:53:25;15.00;;;9.90;;
18657;SDS011;9458;50.942;5.074;2022-11-15T04:55:53;14.32;;;10.18;;
18657;SDS011;9458;50.942;5.074;2022-11-15T04:58:21;15.43;;;9.95;;
18657;SDS011;9458;50.942;5.074;2022-11-15T05:00:49;15.82;;;9.13;;
18657;SDS011;9458;50.942;5.074;2022-11-15T05:03:16;11.27;;;8.35;;
18657;SDS011;9458;50.942;5.074;2022-11-15T05:06:01;15.60;;;8.98;;
18657;SDS011;9458;50.942;5.074;2022-11-15T05:08:29;10.52;;;7.97;;
18657;SDS011;9458;50.942;5.074;2022-11-15T05:10:58;11.27;;;7.57;;
18657;SDS011;9458;50.942;5.074;2022-11-15T05:13:26;10.95;;;7.78;;
18657;SDS011;9458;50.942;5.074;2022-11-15T05:15:53;11.15;;;7.82;;
18657;SDS011;9458;50.942;5.074;2022-11-15T05:18:21;12.38;;;8.35;;
18657;SDS011;9458;50.942;5.074;2022-11-15T05:20:49;9.63;;;7.05;;
18657;SDS011;9458;50.942;5.074;2022-11-15T05:23:16;9.45;;;6.93;;
18657;SDS011;9458;50.942;5.074;2022-11-15T05:25:44;9.95;;;7.43;;
18657;SDS011;9458;50.942;5.074;2022-11-15T05:28:13;8.98;;;6.97;;
18657;SDS011;9458;50.942;5.074;2022-11-15T05:30:41;10.32;;;6.60;;
18657;SDS011;9458;50.942;5.074;2022-11-15T05:33:08;9.95;;;6.75;;
18657;SDS011;9458;50.942;5.074;2022-11-15T05:35:37;9.45;;;6.88;;
18657;SDS011;9458;50.942;5.074;2022-11-15T05:38:08;8.60;;;6.47;;
18657;SDS011;9458;50.942;5.074;2022-11-15T05:40:35;9.23;;;6.97;;
18657;SDS011;9458;50.942;5.074;2022-11-15T05:43:03;11.15;;;7.35;;
18657;SDS011;9458;50.942;5.074;2022-11-15T05:45:35;9.45;;;7.45;;
18657;SDS011;9458;50.942;5.074;2022-11-15T05:48:04;12.45;;;7.57;;
18657;SDS011;9458;50.942;5.074;2022-11-15T05:50:35;10.23;;;7.50;;
18657;SDS011;9458;50.942;5.074;2022-11-15T05:53:04;11.50;;;7.97;;
18657;SDS011;9458;50.942;5.074;2022-11-15T05:55:33;12.10;;;8.15;;
18657;SDS011;9458;50.942;5.074;2022-11-15T05:58:01;13.23;;;8.50;;
18657;SDS011;9458;50.942;5.074;2022-11-15T06:00:29;12.05;;;8.80;;
18657;SDS011;9458;50.942;5.074;2022-11-15T06:02:57;11.75;;;8.43;;
18657;SDS011;9458;50.942;5.074;2022-11-15T06:05:25;10.82;;;7.85;;
18657;SDS011;9458;50.942;5.074;2022-11-15T06:07:52;11.65;;;8.15;;
18657;SDS011;9458;50.942;5.074;2022-11-15T06:10:19;10.73;;;7.70;;
18657;SDS011;9458;50.942;5.074;2022-11-15T06:12:55;11.88;;;7.85;;
18657;SDS011;9458;50.942;5.074;2022-11-15T06:15:24;9.82;;;7.60;;
18657;SDS011;9458;50.942;5.074;2022-11-15T06:17:52;11.40;;;6.90;;
18657;SDS011;9458;50.942;5.074;2022-11-15T06:20:25;10.10;;;7.35;;
18657;SDS011;9458;50.942;5.074;2022-11-15T06:22:56;12.35;;;7.65;;
18657;SDS011;9458;50.942;5.074;2022-11-15T06:25:24;10.88;;;7.47;;
18657;SDS011;9458;50.942;5.074;2022-11-15T06:27:53;9.20;;;7.53;;
18657;SDS011;9458;50.942;5.074;2022-11-15T06:30:22;12.18;;;8.20;;
18657;SDS011;9458;50.942;5.074;2022-11-15T06:32:50;11.75;;;8.40;;
18657;SDS011;9458;50.942;5.074;2022-11-15T06:35:17;11.70;;;8.02;;
18657;SDS011;9458;50.942;5.074;2022-11-15T06:37:46;9.00;;;7.43;;
18657;SDS011;9458;50.942;5.074;2022-11-15T06:40:14;10.05;;;7.68;;
18657;SDS011;9458;50.942;5.074;2022-11-15T06:42:43;14.77;;;8.68;;
18657;SDS011;9458;50.942;5.074;2022-11-15T06:45:11;10.23;;;7.70;;
18657;SDS011;9458;50.942;5.074;2022-11-15T06:47:43;13.20;;;8.43;;
18657;SDS011;9458;50.942;5.074;2022-11-15T06:50:11;12.10;;;7.55;;
18657;SDS011;9458;50.942;5.074;2022-11-15T06:52:39;10.02;;;7.75;;
18657;SDS011;9458;50.942;5.074;2022-11-15T06:55:08;11.57;;;7.90;;
18657;SDS011;9458;50.942;5.074;2022-11-15T06:57:37;13.50;;;7.85;;
18657;SDS011;9458;50.942;5.074;2022-11-15T07:00:12;9.80;;;7.50;;
18657;SDS011;9458;50.942;5.074;2022-11-15T07:02:41;10.88;;;7.72;;
18657;SDS011;9458;50.942;5.074;2022-11-15T07:05:09;10.77;;;7.80;;
18657;SDS011;9458;50.942;5.074;2022-11-15T07:07:37;9.23;;;6.75;;
18657;SDS011;9458;50.942;5.074;2022-11-15T07:10:05;8.38;;;6.63;;
18657;SDS011;9458;50.942;5.074;2022-11-15T07:12:35;8.73;;;6.75;;
18657;SDS011;9458;50.942;5.074;2022-11-15T07:15:06;8.45;;;6.88;;
18657;SDS011;9458;50.942;5.074;2022-11-15T07:17:34;7.80;;;5.93;;
18657;SDS011;9458;50.942;5.074;2022-11-15T07:20:02;8.65;;;6.05;;
18657;SDS011;9458;50.942;5.074;2022-11-15T07:22:30;8.70;;;5.43;;
18657;SDS011;9458;50.942;5.074;2022-11-15T07:24:57;7.13;;;5.38;;
18657;SDS011;9458;50.942;5.074;2022-11-15T07:27:26;6.75;;;5.35;;
18657;SDS011;9458;50.942;5.074;2022-11-15T07:29:56;8.23;;;5.25;;
18657;SDS011;9458;50.942;5.074;2022-11-15T07:32:24;5.68;;;4.93;;
18657;SDS011;9458;50.942;5.074;2022-11-15T07:34:54;6.65;;;5.47;;
18657;SDS011;9458;50.942;5.074;2022-11-15T07:37:22;5.40;;;4.75;;
18657;SDS011;9458;50.942;5.074;2022-11-15T07:39:50;5.82;;;4.95;;
18657;SDS011;9458;50.942;5.074;2022-11-15T07:42:17;6.47;;;5.85;;
18657;SDS011;9458;50.942;5.074;2022-11-15T07:45:04;5.88;;;5.10;;
18657;SDS011;9458;50.942;5.074;2022-11-15T07:47:33;6.00;;;4.70;;
18657;SDS011;9458;50.942;5.074;2022-11-15T07:50:00;7.53;;;4.97;;
18657;SDS011;9458;50.942;5.074;2022-11-15T07:52:28;6.90;;;4.25;;
18657;SDS011;9458;50.942;5.074;2022-11-15T07:54:56;4.78;;;4.28;;
18657;SDS011;9458;50.942;5.074;2022-11-15T07:57:23;5.93;;;4.57;;
18657;SDS011;9458;50.942;5.074;2022-11-15T07:59:52;5.00;;;4.50;;
18657;SDS011;9458;50.942;5.074;2022-11-15T08:02:21;6.50;;;3.90;;
18657;SDS011;9458;50.942;5.074;2022-11-15T08:04:49;5.68;;;4.63;;
18657;SDS011;9458;50.942;5.074;2022-11-15T08:07:17;6.72;;;4.30;;
18657;SDS011;9458;50.942;5.074;2022-11-15T08:09:45;4.75;;;4.22;;
18657;SDS011;9458;50.942;5.074;2022-11-15T08:12:13;5.63;;;4.20;;
18657;SDS011;9458;50.942;5.074;2022-11-15T08:14:41;6.68;;;2.90;;
18657;SDS011;9458;50.942;5.074;2022-11-15T08:17:09;4.63;;;3.42;;
18657;SDS011;9458;50.942;5.074;2022-11-15T08:19:39;4.20;;;2.95;;
18657;SDS011;9458;50.942;5.074;2022-11-15T08:22:07;5.40;;;3.45;;
18657;SDS011;9458;50.942;5.074;2022-11-15T08:24:35;4.63;;;3.28;;
18657;SDS011;9458;50.942;5.074;2022-11-15T08:27:02;4.13;;;2.75;;
18657;SDS011;9458;50.942;5.074;2022-11-15T08:29:30;4.43;;;3.53;;
18657;SDS011;9458;50.942;5.074;2022-11-15T08:31:58;12.95;;;7.53;;
18657;SDS011;9458;50.942;5.074;2022-11-15T08:34:25;4.97;;;3.90;;
18657;SDS011;9458;50.942;5.074;2022-11-15T08:36:57;4.03;;;3.10;;
18657;SDS011;9458;50.942;5.074;2022-11-15T08:39:25;4.00;;;2.50;;
18657;SDS011;9458;50.942;5.074;2022-11-15T08:41:54;6.28;;;3.83;;
18657;SDS011;9458;50.942;5.074;2022-11-15T08:44:22;2.92;;;1.85;;
18657;SDS011;9458;50.942;5.074;2022-11-15T08:46:50;2.80;;;2.15;;
18657;SDS011;9458;50.942;5.074;2022-11-15T08:49:19;2.00;;;1.60;;
18657;SDS011;9458;50.942;5.074;2022-11-15T08:51:46;2.05;;;1.50;;
18657;SDS011;9458;50.942;5.074;2022-11-15T08:54:15;2.30;;;1.00;;
18657;SDS011;9458;50.942;5.074;2022-11-15T08:56:44;3.28;;;1.17;;
18657;SDS011;9458;50.942;5.074;2022-11-15T08:59:11;1.60;;;1.08;;
18657;SDS011;9458;50.942;5.074;2022-11-15T09:01:40;2.50;;;1.20;;
18657;SDS011;9458;50.942;5.074;2022-11-15T09:04:08;1.92;;;1.00;;
18657;SDS011;9458;50.942;5.074;2022-11-15T09:06:35;3.00;;;1.20;;
18657;SDS011;9458;50.942;5.074;2022-11-15T09:09:03;2.05;;;1.13;;
18657;SDS011;9458;50.942;5.074;2022-11-15T09:11:33;1.77;;;1.05;;
18657;SDS011;9458;50.942;5.074;2022-11-15T09:14:01;1.38;;;0.80;;
18657;SDS011;9458;50.942;5.074;2022-11-15T09:16:29;1.63;;;1.00;;
18657;SDS011;9458;50.942;5.074;2022-11-15T09:18:58;2.15;;;1.20;;
18657;SDS011;9458;50.942;5.074;2022-11-15T09:21:26;1.92;;;0.95;;
18657;SDS011;9458;50.942;5.074;2022-11-15T09:23:56;1.63;;;1.13;;
18657;SDS011;9458;50.942;5.074;2022-11-15T09:26:24;3.42;;;1.38;;
18657;SDS011;9458;50.942;5.074;2022-11-15T09:28:53;4.20;;;1.38;;
18657;SDS011;9458;50.942;5.074;2022-11-15T09:31:22;2.25;;;1.40;;
18657;SDS011;9458;50.942;5.074;2022-11-15T09:33:49;4.55;;;1.77;;
18657;SDS011;9458;50.942;5.074;2022-11-15T09:36:17;3.58;;;2.22;;
18657;SDS011;9458;50.942;5.074;2022-11-15T09:38:44;3.38;;;1.52;;
18657;SDS011;9458;50.942;5.074;2022-11-15T09:41:17;3.67;;;1.90;;
18657;SDS011;9458;50.942;5.074;2022-11-15T09:44:15;1.52;;;0.93;;
18657;SDS011;9458;50.942;5.074;2022-11-15T09:47:03;4.70;;;1.55;;
18657;SDS011;9458;50.942;5.074;2022-11-15T09:49:50;1.98;;;1.30;;
18657;SDS011;9458;50.942;5.074;2022-11-15T09:52:21;2.72;;;1.52;;
18657;SDS011;9458;50.942;5.074;2022-11-15T09:54:50;3.10;;;1.33;;
18657;SDS011;9458;50.942;5.074;2022-11-15T09:57:21;4.28;;;1.17;;
18657;SDS011;9458;50.942;5.074;2022-11-15T10:03:18;3.95;;;1.40;;
18657;SDS011;9458;50.942;5.074;2022-11-15T10:05:51;3.80;;;1.08;;
18657;SDS011;9458;50.942;5.074;2022-11-15T10:08:27;3.55;;;1.35;;
18657;SDS011;9458;50.942;5.074;2022-11-15T10:11:14;1.80;;;1.08;;
18657;SDS011;9458;50.942;5.074;2022-11-15T10:13:46;4.63;;;1.48;;
18657;SDS011;9458;50.942;5.074;2022-11-15T10:19:20;6.13;;;0.80;;
18657;SDS011;9458;50.942;5.074;2022-11-15T10:21:55;2.85;;;1.00;;
18657;SDS011;9458;50.942;5.074;2022-11-15T10:24:35;2.72;;;1.00;;
18657;SDS011;9458;50.942;5.074;2022-11-15T10:27:09;3.25;;;1.20;;
18657;SDS011;9458;50.942;5.074;2022-11-15T10:29:44;2.80;;;0.93;;
18657;SDS011;9458;50.942;5.074;2022-11-15T10:32:14;2.42;;;0.82;;
18657;SDS011;9458;50.942;5.074;2022-11-15T10:34:46;3.28;;;1.15;;
18657;SDS011;9458;50.942;5.074;2022-11-15T10:37:14;1.38;;;0.80;;
18657;SDS011;9458;50.942;5.074;2022-11-15T10:40:02;1.58;;;1.17;;
18657;SDS011;9458;50.942;5.074;2022-11-15T10:42:30;2.92;;;1.13;;
18657;SDS011;9458;50.942;5.074;2022-11-15T10:44:57;2.55;;;0.85;;
18657;SDS011;9458;50.942;5.074;2022-11-15T10:47:26;2.83;;;1.00;;
18657;SDS011;9458;50.942;5.074;2022-11-15T10:49:58;4.63;;;1.35;;
18657;SDS011;9458;50.942;5.074;2022-11-15T10:52:29;2.92;;;1.20;;
18657;SDS011;9458;50.942;5.074;2022-11-15T10:55:01;2.78;;;1.17;;
18657;SDS011;9458;50.942;5.074;2022-11-15T10:57:33;4.03;;;0.98;;
18657;SDS011;9458;50.942;5.074;2022-11-15T11:00:04;1.20;;;0.80;;
18657;SDS011;9458;50.942;5.074;2022-11-15T11:02:34;6.15;;;1.17;;
18657;SDS011;9458;50.942;5.074;2022-11-15T11:05:06;3.40;;;1.05;;
18657;SDS011;9458;50.942;5.074;2022-11-15T11:07:55;3.90;;;1.00;;
18657;SDS011;9458;50.942;5.074;2022-11-15T11:10:24;4.00;;;0.90;;
18657;SDS011;9458;50.942;5.074;2022-11-15T11:12:52;2.25;;;0.98;;
18657;SDS011;9458;50.942;5.074;2022-11-15T11:15:22;5.53;;;0.80;;
18657;SDS011;9458;50.942;5.074;2022-11-15T11:17:57;2.78;;;0.95;;
18657;SDS011;9458;50.942;5.074;2022-11-15T11:20:32;2.85;;;0.90;;
18657;SDS011;9458;50.942;5.074;2022-11-15T11:23:12;3.72;;;1.27;;
18657;SDS011;9458;50.942;5.074;2022-11-15T11:25:59;3.35;;;1.10;;
18657;SDS011;9458;50.942;5.074;2022-11-15T11:28:39;2.42;;;0.85;;
18657;SDS011;9458;50.942;5.074;2022-11-15T11:31:18;4.75;;;1.35;;
18657;SDS011;9458;50.942;5.074;2022-11-15T11:33:58;2.63;;;0.70;;
18657;SDS011;9458;50.942;5.074;2022-11-15T11:36:44;1.73;;;0.70;;
18657;SDS011;9458;50.942;5.074;2022-11-15T11:39:24;1.73;;;0.80;;
18657;SDS011;9458;50.942;5.074;2022-11-15T11:41:59;4.18;;;1.05;;
18657;SDS011;9458;50.942;5.074;2022-11-15T11:44:35;3.15;;;1.00;;
18657;SDS011;9458;50.942;5.074;2022-11-15T11:47:11;2.35;;;1.10;;
18657;SDS011;9458;50.942;5.074;2022-11-15T11:49:44;4.00;;;0.93;;
18657;SDS011;9458;50.942;5.074;2022-11-15T11:52:17;3.83;;;1.13;;
18657;SDS011;9458;50.942;5.074;2022-11-15T11:54:54;4.65;;;1.02;;
18657;SDS011;9458;50.942;5.074;2022-11-15T11:57:30;4.13;;;1.10;;
18657;SDS011;9458;50.942;5.074;2022-11-15T12:00:03;3.17;;;1.52;;
18657;SDS011;9458;50.942;5.074;2022-11-15T12:02:39;2.15;;;0.90;;
18657;SDS011;9458;50.942;5.074;2022-11-15T12:05:17;2.83;;;0.68;;
18657;SDS011;9458;50.942;5.074;2022-11-15T12:07:59;2.70;;;1.20;;
18657;SDS011;9458;50.942;5.074;2022-11-15T12:10:35;1.75;;;0.93;;
18657;SDS011;9458;50.942;5.074;2022-11-15T12:13:08;3.95;;;1.02;;
18657;SDS011;9458;50.942;5.074;2022-11-15T12:15:42;3.85;;;1.20;;
18657;SDS011;9458;50.942;5.074;2022-11-15T12:18:12;3.25;;;1.15;;
18657;SDS011;9458;50.942;5.074;2022-11-15T12:20:48;4.22;;;1.10;;
18657;SDS011;9458;50.942;5.074;2022-11-15T12:23:20;1.17;;;0.70;;
18657;SDS011;9458;50.942;5.074;2022-11-15T12:25:55;4.35;;;1.35;;
18657;SDS011;9458;50.942;5.074;2022-11-15T12:28:30;1.80;;;1.00;;
18657;SDS011;9458;50.942;5.074;2022-11-15T12:31:05;4.28;;;1.38;;
18657;SDS011;9458;50.942;5.074;2022-11-15T12:33:40;1.35;;;0.70;;
18657;SDS011;9458;50.942;5.074;2022-11-15T12:36:09;4.03;;;0.85;;
18657;SDS011;9458;50.942;5.074;2022-11-15T12:38:51;5.93;;;1.30;;
18657;SDS011;9458;50.942;5.074;2022-11-15T12:41:21;1.80;;;0.70;;
18657;SDS011;9458;50.942;5.074;2022-11-15T12:43:51;6.18;;;1.25;;
18657;SDS011;9458;50.942;5.074;2022-11-15T12:46:22;4.70;;;1.00;;
18657;SDS011;9458;50.942;5.074;2022-11-15T12:52:11;3.15;;;1.80;;
18657;SDS011;9458;50.942;5.074;2022-11-15T12:54:54;3.15;;;1.20;;
18657;SDS011;9458;50.942;5.074;2022-11-15T12:57:33;5.22;;;2.30;;
18657;SDS011;9458;50.942;5.074;2022-11-15T13:03:17;6.55;;;3.33;;
18657;SDS011;9458;50.942;5.074;2022-11-15T13:05:55;4.65;;;1.60;;
18657;SDS011;9458;50.942;5.074;2022-11-15T13:20:19;4.85;;;1.85;;
18657;SDS011;9458;50.942;5.074;2022-11-15T13:22:53;3.30;;;1.42;;
18657;SDS011;9458;50.942;5.074;2022-11-15T13:25:46;1.20;;;0.82;;
18657;SDS011;9458;50.942;5.074;2022-11-15T13:28:33;2.75;;;0.90;;
18657;SDS011;9458;50.942;5.074;2022-11-15T13:31:13;4.18;;;1.42;;
18657;SDS011;9458;50.942;5.074;2022-11-15T13:33:48;1.63;;;0.95;;
18657;SDS011;9458;50.942;5.074;2022-11-15T13:36:18;1.42;;;1.00;;
18657;SDS011;9458;50.942;5.074;2022-11-15T13:38:53;4.35;;;0.82;;
18657;SDS011;9458;50.942;5.074;2022-11-15T13:41:24;1.90;;;0.90;;
18657;SDS011;9458;50.942;5.074;2022-11-15T13:43:54;1.42;;;1.05;;
18657;SDS011;9458;50.942;5.074;2022-11-15T13:46:23;2.30;;;0.95;;
18657;SDS011;9458;50.942;5.074;2022-11-15T13:48:53;2.22;;;1.17;;
18657;SDS011;9458;50.942;5.074;2022-11-15T13:51:25;4.30;;;1.20;;
18657;SDS011;9458;50.942;5.074;2022-11-15T13:54:01;3.30;;;1.00;;
18657;SDS011;9458;50.942;5.074;2022-11-15T13:56:34;1.15;;;1.05;;
18657;SDS011;9458;50.942;5.074;2022-11-15T13:59:09;1.75;;;1.00;;
18657;SDS011;9458;50.942;5.074;2022-11-15T14:01:39;2.97;;;1.10;;
18657;SDS011;9458;50.942;5.074;2022-11-15T14:04:11;3.67;;;1.05;;
18657;SDS011;9458;50.942;5.074;2022-11-15T14:06:44;2.67;;;1.00;;
18657;SDS011;9458;50.942;5.074;2022-11-15T14:09:28;2.13;;;1.10;;
18657;SDS011;9458;50.942;5.074;2022-11-15T14:11:59;1.00;;;0.90;;
18657;SDS011;9458;50.942;5.074;2022-11-15T14:14:30;1.77;;;0.90;;
18657;SDS011;9458;50.942;5.074;2022-11-15T14:16:58;3.85;;;1.10;;
18657;SDS011;9458;50.942;5.074;2022-11-15T14:19:37;2.70;;;1.25;;
18657;SDS011;9458;50.942;5.074;2022-11-15T14:22:11;4.10;;;1.05;;
18657;SDS011;9458;50.942;5.074;2022-11-15T14:24:46;1.85;;;1.17;;
18657;SDS011;9458;50.942;5.074;2022-11-15T14:27:30;3.05;;;1.45;;
18657;SDS011;9458;50.942;5.074;2022-11-15T14:30:00;4.07;;;1.15;;
18657;SDS011;9458;50.942;5.074;2022-11-15T14:32:29;4.22;;;1.25;;
18657;SDS011;9458;50.942;5.074;2022-11-15T14:35:09;2.53;;;0.90;;
18657;SDS011;9458;50.942;5.074;2022-11-15T14:37:42;1.02;;;0.90;;
18657;SDS011;9458;50.942;5.074;2022-11-15T14:40:11;1.83;;;1.00;;
18657;SDS011;9458;50.942;5.074;2022-11-15T14:42:43;3.72;;;1.25;;
18657;SDS011;9458;50.942;5.074;2022-11-15T14:45:14;2.17;;;1.20;;
18657;SDS011;9458;50.942;5.074;2022-11-15T14:47:43;3.40;;;1.95;;
18657;SDS011;9458;50.942;5.074;2022-11-15T14:50:12;2.25;;;1.38;;
18657;SDS011;9458;50.942;5.074;2022-11-15T14:52:40;2.35;;;1.33;;
18657;SDS011;9458;50.942;5.074;2022-11-15T14:55:13;1.48;;;1.20;;
18657;SDS011;9458;50.942;5.074;2022-11-15T14:57:45;1.90;;;1.40;;
18657;SDS011;9458;50.942;5.074;2022-11-15T15:00:17;1.10;;;1.00;;
18657;SDS011;9458;50.942;5.074;2022-11-15T15:02:46;1.58;;;1.20;;
18657;SDS011;9458;50.942;5.074;2022-11-15T15:05:16;2.60;;;1.33;;
18657;SDS011;9458;50.942;5.074;2022-11-15T15:07:46;1.30;;;1.20;;
18657;SDS011;9458;50.942;5.074;2022-11-15T15:10:14;0.98;;;0.98;;
18657;SDS011;9458;50.942;5.074;2022-11-15T15:12:42;2.97;;;1.33;;
18657;SDS011;9458;50.942;5.074;2022-11-15T15:15:12;1.27;;;1.10;;
18657;SDS011;9458;50.942;5.074;2022-11-15T15:17:43;5.63;;;1.58;;
18657;SDS011;9458;50.942;5.074;2022-11-15T15:20:11;2.03;;;1.50;;
18657;SDS011;9458;50.942;5.074;2022-11-15T15:22:39;2.17;;;1.40;;
18657;SDS011;9458;50.942;5.074;2022-11-15T15:25:19;3.22;;;1.30;;
18657;SDS011;9458;50.942;5.074;2022-11-15T15:27:49;1.65;;;1.35;;
18657;SDS011;9458;50.942;5.074;2022-11-15T15:30:17;1.70;;;1.40;;
18657;SDS011;9458;50.942;5.074;2022-11-15T15:32:46;2.50;;;1.80;;
18657;SDS011;9458;50.942;5.074;2022-11-15T15:35:14;2.33;;;1.55;;
18657;SDS011;9458;50.942;5.074;2022-11-15T15:37:44;2.00;;;1.77;;
18657;SDS011;9458;50.942;5.074;2022-11-15T15:40:14;1.98;;;1.60;;
18657;SDS011;9458;50.942;5.074;2022-11-15T15:42:42;4.75;;;1.70;;
18657;SDS011;9458;50.942;5.074;2022-11-15T15:45:11;2.90;;;1.67;;